Panda — H8NH — position and weather

sailwx.info

Track history (hours):
 
Tides and Currents Weather Stations Pressure Air Temp Water Temp Dewpoint Dewpoint Depression Visibility Wind Speed Wind Dir Waves Ship Positions

Panda

Last reported at 2017-Aug-20 05:52 UTC. Time now 2017-Aug-20 15:34 UTC.
Position N 39°60' E 025°57'.

Length 171 m; draft 9.8 m.

Type: Cargo ship. MMSI: 352528000.

Date/timePositionNaut miles runAvg speedWind from/ knotsBaromVisibWave heightAir tempDewpointWater temp
2017-Aug-20 05:52N 39°60' E 025°57'511.9
2017-Aug-20 05:29N 40°01' E 026°03'611.7
2017-Aug-20 04:58N 40°02' E 026°11'153 6.1
2017-Aug-19 03:52N 41°22' E 029°02'0 1.2
2017-Aug-19 03:30N 41°22' E 029°02'6 1.2
2017-Aug-18 22:10N 41°27' E 028°57'0 0.7
2017-Aug-18 21:29N 41°27' E 028°56'0 0.7
2017-Aug-18 20:57N 41°28' E 028°56'0 0.7
2017-Aug-18 20:29N 41°28' E 028°56'0 0.7
2017-Aug-18 20:00N 41°28' E 028°56'0 0.6
2017-Aug-18 19:30N 41°29' E 028°56'0 0.7
2017-Aug-18 18:49N 41°29' E 028°56'1 0.8
2017-Aug-18 17:34N 41°30' E 028°56'0 0.8
2017-Aug-18 17:24N 41°30' E 028°56'1 0.8
2017-Aug-18 16:47N 41°31' E 028°56'0 0.8
2017-Aug-18 16:29N 41°31' E 028°56'0 0.8
2017-Aug-18 15:59N 41°31' E 028°56'0 0.8
2017-Aug-18 15:24N 41°32' E 028°56'0 0.7
2017-Aug-18 15:01N 41°32' E 028°56'3 6.9
2017-Aug-18 14:30N 41°29' E 028°58'8 2.3
2017-Aug-18 11:10N 41°23' E 029°05'1 0.9
2017-Aug-18 10:28N 41°23' E 029°04'0 0.9
2017-Aug-18 09:59N 41°24' E 029°04'0 0.9
2017-Aug-18 09:30N 41°24' E 029°04'0 1.0
2017-Aug-18 09:01N 41°24' E 029°04'0 0.9
2017-Aug-18 08:29N 41°25' E 029°03'14 4.5
2017-Aug-18 05:25N 41°19' E 029°20'10 1.1
2017-Aug-17 20:26N 41°25' E 029°10'0 0.9
2017-Aug-17 20:00N 41°25' E 029°10'0 0.8
2017-Aug-17 19:29N 41°26' E 029°09'0 0.6
2017-Aug-17 18:54N 41°26' E 029°09'0 0.6
2017-Aug-17 18:30N 41°26' E 029°09'1 1.6
2017-Aug-17 18:00N 41°25' E 029°08'8 9.8
2017-Aug-17 17:13N 41°21' E 029°17'1 2.7
2017-Aug-17 16:59N 41°20' E 029°17'1 1.3
2017-Aug-17 16:29N 41°20' E 029°16'1 1.1
2017-Aug-17 16:00N 41°21' E 029°16'1 1.0
2017-Aug-17 15:30N 41°21' E 029°15'1 1.1
2017-Aug-17 14:58N 41°21' E 029°15'0 1.0
2017-Aug-17 14:30N 41°22' E 029°14'0 0.9
2017-Aug-17 14:00N 41°22' E 029°14'1 1.0
2017-Aug-17 13:29N 41°23' E 029°13'9 5.0
2017-Aug-17 11:45N 41°27' E 029°23'311.1
2017-Aug-17 11:29N 41°28' E 029°27'611.2
2017-Aug-17 10:57N 41°32' E 029°33'611.3
2017-Aug-17 10:26N 41°35' E 029°40'511.4
2017-Aug-17 10:00N 41°38' E 029°45'611.5
2017-Aug-17 09:30N 41°41' E 029°52'611.6
2017-Aug-17 09:00N 41°44' E 029°58'611.6
2017-Aug-17 08:30N 41°47' E 030°05'611.5
2017-Aug-17 07:59N 41°50' E 030°11'611.5
2017-Aug-17 07:30N 41°53' E 030°18'611.6
2017-Aug-17 07:00N 41°56' E 030°24'32911.3
2017-Aug-16 01:54N 45°09' E 036°32'1 2.2
2017-Aug-16 01:30N 45°10' E 036°33'0 0.2
2017-Aug-16 00:23N 45°10' E 036°33'0 0.0
2017-Aug-15 23:35N 45°10' E 036°33'0 0.2
2017-Aug-15 23:23N 45°10' E 036°33'0 0.1
2017-Aug-15 22:59N 45°10' E 036°33'0 0.0
2017-Aug-15 22:29N 45°10' E 036°33'0 0.0
2017-Aug-15 21:59N 45°10' E 036°33'0 0.1
2017-Aug-15 21:29N 45°10' E 036°33'0 0.1
2017-Aug-15 20:59N 45°10' E 036°33'0 0.1
2017-Aug-15 19:32N 45°10' E 036°33'0 0.0
2017-Aug-15 19:29N 45°10' E 036°33'0 0.0
2017-Aug-15 18:56N 45°10' E 036°33'0 0.0
2017-Aug-15 18:26N 45°10' E 036°33'0 0.0
2017-Aug-15 17:59N 45°10' E 036°33'0 0.1
2017-Aug-15 16:44N 45°10' E 036°33'0 0.0
2017-Aug-15 16:29N 45°10' E 036°33'0 0.1
2017-Aug-15 15:56N 45°10' E 036°33'0 0.2
2017-Aug-15 15:29N 45°10' E 036°33'0 0.1
2017-Aug-15 14:53N 45°10' E 036°33'0 0.0
2017-Aug-15 14:23N 45°10' E 036°33'0 0.1
2017-Aug-15 13:59N 45°10' E 036°33'0 0.0
2017-Aug-15 13:29N 45°10' E 036°33'0 0.0
2017-Aug-15 12:59N 45°10' E 036°33'0 0.1
2017-Aug-15 12:29N 45°10' E 036°33'0 0.1
2017-Aug-15 11:41N 45°10' E 036°33'0 0.1
2017-Aug-15 11:29N 45°10' E 036°33'0 0.0
2017-Aug-15 10:59N 45°10' E 036°33'0 0.1
2017-Aug-15 10:23N 45°10' E 036°33'0 0.0
2017-Aug-15 09:59N 45°10' E 036°33'0 0.0
2017-Aug-14 13:05N 45°10' E 036°33'0 0.1
2017-Aug-14 12:59N 45°10' E 036°33'0 0.0
2017-Aug-14 12:14N 45°10' E 036°33'0 0.0
2017-Aug-14 11:59N 45°10' E 036°33'0 0.0
2017-Aug-14 11:29N 45°10' E 036°33'0 0.0
2017-Aug-14 10:44N 45°10' E 036°33'0 0.0
2017-Aug-14 10:29N 45°10' E 036°33'0 0.0
2017-Aug-14 09:56N 45°10' E 036°33'0 0.1
2017-Aug-14 08:11N 45°10' E 036°33'0 0.1
2017-Aug-14 07:59N 45°10' E 036°33'0 0.0
2017-Aug-14 07:29N 45°10' E 036°33'0 0.0
2017-Aug-14 06:56N 45°10' E 036°33'0 0.0
2017-Aug-14 06:26N 45°10' E 036°33'0 0.0
2017-Aug-14 05:41N 45°10' E 036°33'0 0.0
2017-Aug-14 05:29N 45°10' E 036°33'0 0.0
2017-Aug-14 04:44N 45°10' E 036°33'0 0.0
2017-Aug-14 04:26N 45°10' E 036°33'0 0.0
2017-Aug-14 03:14N 45°10' E 036°33'0 0.1
2017-Aug-14 02:50N 45°10' E 036°33'0 0.0
2017-Aug-14 02:29N 45°10' E 036°33'0 0.0
2017-Aug-14 01:26N 45°10' E 036°33'0 0.0
2017-Aug-14 00:53N 45°10' E 036°33'0 0.1
2017-Aug-14 00:29N 45°10' E 036°33'0 0.0
2017-Aug-13 23:56N 45°10' E 036°33'0 0.0
2017-Aug-13 23:26N 45°10' E 036°33'0 0.1
2017-Aug-13 22:56N 45°10' E 036°33'0 0.0
2017-Aug-13 22:29N 45°10' E 036°33'0 0.0
2017-Aug-13 21:59N 45°10' E 036°33'0 0.0
2017-Aug-13 21:23N 45°10' E 036°33'0 0.1
2017-Aug-13 20:56N 45°10' E 036°33'0 0.0
2017-Aug-13 20:23N 45°10' E 036°33'0 0.0
2017-Aug-13 19:47N 45°10' E 036°33'0 0.0
2017-Aug-13 19:29N 45°10' E 036°33'0 0.0
2017-Aug-13 18:59N 45°10' E 036°33'0 0.0
2017-Aug-13 18:29N 45°10' E 036°33'0 0.1
2017-Aug-13 17:59N 45°10' E 036°33'0 0.1
2017-Aug-13 15:29N 45°10' E 036°33'0 0.1
2017-Aug-13 14:59N 45°10' E 036°33'0 0.1
2017-Aug-13 14:26N 45°10' E 036°33'0 0.0
2017-Aug-13 13:44N 45°10' E 036°33'0 0.1
2017-Aug-13 13:17N 45°10' E 036°33'0 0.0
2017-Aug-13 12:56N 45°10' E 036°33'0 0.1
2017-Aug-13 12:29N 45°10' E 036°33'0 0.0
2017-Aug-13 11:59N 45°10' E 036°33'0 0.1
2017-Aug-13 11:29N 45°10' E 036°33'0 0.1
2017-Aug-13 10:59N 45°10' E 036°33'0 0.0
2017-Aug-13 10:26N 45°10' E 036°33'0 0.0
2017-Aug-13 09:59N 45°10' E 036°33'0 0.0
2017-Aug-13 09:26N 45°10' E 036°33'0 0.0
2017-Aug-13 08:59N 45°10' E 036°33'0 0.1
2017-Aug-13 08:26N 45°10' E 036°33'0 0.1
2017-Aug-13 07:59N 45°10' E 036°33'0 0.0
2017-Aug-13 07:29N 45°10' E 036°33'0 0.0
2017-Aug-13 06:59N 45°10' E 036°33'0 0.0
2017-Aug-13 06:29N 45°10' E 036°33'0 0.0
2017-Aug-13 05:59N 45°10' E 036°33'0 0.0
2017-Aug-13 05:23N 45°10' E 036°33'0 0.0
2017-Aug-13 04:50N 45°10' E 036°33'0 0.0
2017-Aug-13 03:50N 45°10' E 036°33'0 0.0
2017-Aug-13 03:29N 45°10' E 036°33'0 0.0
2017-Aug-13 02:53N 45°10' E 036°33'0 0.0
2017-Aug-13 01:23N 45°10' E 036°33'0 0.0
2017-Aug-13 00:59N 45°10' E 036°33'0 0.0
2017-Aug-12 23:32N 45°10' E 036°33'0 0.1
2017-Aug-12 23:29N 45°10' E 036°33'0 0.0
2017-Aug-12 22:59N 45°10' E 036°33'0 0.0
2017-Aug-12 22:29N 45°10' E 036°33'0 0.0
2017-Aug-12 21:53N 45°10' E 036°33'0 0.0
2017-Aug-12 21:17N 45°10' E 036°33'0 0.1
2017-Aug-12 20:50N 45°10' E 036°33'0 0.0
2017-Aug-12 17:44N 45°10' E 036°33'0 0.0
2017-Aug-12 17:23N 45°10' E 036°33'0 0.0
2017-Aug-12 16:41N 45°10' E 036°33'0 0.1
2017-Aug-12 16:29N 45°10' E 036°33'0 0.0
2017-Aug-12 15:56N 45°10' E 036°33'0 0.0
2017-Aug-12 15:29N 45°10' E 036°33'0 0.0
2017-Aug-12 14:59N 45°10' E 036°33'0 0.0
2017-Aug-12 14:29N 45°10' E 036°33'0 0.0
2017-Aug-12 13:59N 45°10' E 036°33'0 0.0
2017-Aug-12 13:29N 45°10' E 036°33'0 0.0
2017-Aug-12 12:59N 45°10' E 036°33'0 0.0
2017-Aug-12 12:29N 45°10' E 036°33'0 0.0
2017-Aug-12 11:59N 45°10' E 036°33'0 0.0
2017-Aug-12 11:29N 45°10' E 036°33'0 0.0
2017-Aug-12 10:59N 45°10' E 036°33'0 0.0
2017-Aug-12 10:26N 45°10' E 036°33'0 0.0
2017-Aug-12 09:59N 45°10' E 036°33'0 0.0
2017-Aug-12 09:29N 45°10' E 036°33'0 0.0
2017-Aug-12 08:53N 45°10' E 036°33'0 0.0
2017-Aug-12 08:26N 45°10' E 036°33'0 0.0
2017-Aug-12 07:59N 45°10' E 036°33'0 0.0
2017-Aug-12 07:29N 45°10' E 036°33'0 0.0
2017-Aug-12 06:59N 45°10' E 036°33'0 0.1
2017-Aug-12 06:20N 45°10' E 036°33'0 0.0
2017-Aug-12 05:38N 45°10' E 036°33'0 0.0
2017-Aug-12 05:17N 45°10' E 036°33'0 0.0
2017-Aug-12 04:59N 45°10' E 036°33'0 0.0
2017-Aug-12 02:59N 45°10' E 036°33'0 0.0
2017-Aug-12 02:26N 45°10' E 036°33'0 0.0
2017-Aug-12 01:59N 45°10' E 036°33'0 0.0
2017-Aug-12 01:29N 45°10' E 036°33'0 0.0
2017-Aug-12 00:59N 45°10' E 036°33'0 0.0
2017-Aug-12 00:29N 45°10' E 036°33'0 0.0
2017-Aug-11 23:59N 45°10' E 036°33'0 0.0
2017-Aug-11 22:50N 45°10' E 036°33'0 0.0
2017-Aug-11 22:26N 45°10' E 036°33'0 0.0
2017-Aug-11 21:59N 45°10' E 036°33'0 0.0
2017-Aug-11 21:23N 45°10' E 036°33'0 0.1
2017-Aug-11 20:59N 45°10' E 036°33'0 0.0
2017-Aug-11 20:17N 45°10' E 036°33'0 0.0
2017-Aug-11 19:59N 45°10' E 036°33'0 0.0
2017-Aug-11 19:29N 45°10' E 036°33'0 0.0
2017-Aug-11 18:59N 45°10' E 036°33'0 0.0
2017-Aug-11 18:29N 45°10' E 036°33'0 0.0
2017-Aug-11 17:59N 45°10' E 036°33'0 0.0
2017-Aug-11 17:29N 45°10' E 036°33'0 0.0
2017-Aug-11 16:59N 45°10' E 036°33'0 0.0
2017-Aug-11 16:29N 45°10' E 036°33'0 0.0
2017-Aug-11 15:59N 45°10' E 036°33'0 0.0
2017-Aug-11 15:29N 45°10' E 036°33'0 0.0
2017-Aug-11 14:59N 45°10' E 036°33'0 0.0
2017-Aug-11 13:59N 45°10' E 036°33'0 0.0
2017-Aug-11 13:29N 45°10' E 036°33'0 0.0
2017-Aug-11 12:59N 45°10' E 036°33'0 0.0
2017-Aug-11 12:26N 45°10' E 036°33'0 0.0
2017-Aug-11 11:56N 45°10' E 036°33'0 0.0
2017-Aug-11 11:26N 45°10' E 036°33'0 0.0
2017-Aug-11 10:59N 45°10' E 036°33'0 0.0
2017-Aug-11 10:29N 45°10' E 036°33'0 0.1
2017-Aug-11 09:56N 45°10' E 036°33'0 0.0
2017-Aug-11 09:26N 45°10' E 036°33'0 0.0
2017-Aug-11 08:59N 45°10' E 036°33'0 0.0
2017-Aug-11 08:26N 45°10' E 036°33'0 0.0
2017-Aug-11 07:56N 45°10' E 036°33'0 0.0
2017-Aug-11 07:29N 45°10' E 036°33'0 0.0
2017-Aug-11 06:59N 45°10' E 036°33'0 0.0
2017-Aug-11 06:26N 45°10' E 036°33'0 0.0
2017-Aug-11 05:59N 45°10' E 036°33'0 0.0
2017-Aug-11 05:26N 45°10' E 036°33'0 0.0
2017-Aug-11 04:50N 45°10' E 036°33'0 0.0
2017-Aug-11 04:23N 45°10' E 036°33'0 0.0
2017-Aug-11 03:59N 45°10' E 036°33'0 0.0
2017-Aug-11 03:26N 45°10' E 036°33'0 0.0
2017-Aug-11 02:59N 45°10' E 036°33'0 0.0
2017-Aug-11 02:26N 45°10' E 036°33'0 0.0
2017-Aug-11 01:59N 45°10' E 036°33'0 0.0
2017-Aug-11 01:20N 45°10' E 036°33'0 0.0
2017-Aug-11 00:59N 45°10' E 036°33'0 0.0
2017-Aug-11 00:23N 45°10' E 036°33'0 0.0
2017-Aug-10 23:59N 45°10' E 036°33'0 0.0
2017-Aug-10 23:26N 45°10' E 036°33'0 0.0
2017-Aug-10 22:59N 45°10' E 036°33'0 0.0
2017-Aug-10 22:14N 45°10' E 036°33'0 0.0
2017-Aug-10 21:56N 45°10' E 036°33'0 0.0
2017-Aug-10 21:26N 45°10' E 036°33'0 0.0
2017-Aug-10 20:59N 45°10' E 036°33'0 0.0
2017-Aug-10 20:29N 45°10' E 036°33'0 0.0
2017-Aug-10 19:53N 45°10' E 036°33'0 0.0
2017-Aug-10 19:29N 45°10' E 036°33'0 0.0
2017-Aug-10 18:59N 45°10' E 036°33'0 0.0
2017-Aug-10 18:26N 45°10' E 036°33'0 0.0
2017-Aug-10 17:56N 45°10' E 036°33'0 0.0
2017-Aug-10 17:26N 45°10' E 036°33'0 0.0
2017-Aug-10 16:59N 45°10' E 036°33'0 0.0
2017-Aug-10 16:26N 45°10' E 036°33'0 0.0
2017-Aug-10 15:59N 45°10' E 036°33'0 0.0
2017-Aug-10 15:29N 45°10' E 036°33'0 0.0
2017-Aug-10 14:56N 45°10' E 036°33'0 0.0
2017-Aug-10 14:29N 45°10' E 036°33'0 0.0
2017-Aug-10 13:56N 45°10' E 036°33'0 0.0
2017-Aug-10 13:29N 45°10' E 036°33'0 0.0
2017-Aug-10 12:59N 45°10' E 036°33'0 0.0
2017-Aug-10 12:26N 45°10' E 036°33'0 0.0
2017-Aug-10 11:59N 45°10' E 036°33'0 0.0
2017-Aug-10 11:26N 45°10' E 036°33'0 0.0
2017-Aug-10 10:59N 45°10' E 036°33'0 0.0
2017-Aug-10 10:26N 45°10' E 036°33'0 0.0
2017-Aug-10 09:53N 45°10' E 036°33'0 0.1
2017-Aug-10 09:29N 45°10' E 036°33'0 0.0
2017-Aug-10 08:53N 45°10' E 036°33'0 0.0
2017-Aug-10 08:26N 45°10' E 036°33'0 0.1
2017-Aug-10 07:53N 45°10' E 036°33'0 0.0
2017-Aug-10 07:23N 45°10' E 036°33'0 0.0
2017-Aug-10 06:59N 45°10' E 036°33'0 0.0
2017-Aug-10 06:26N 45°10' E 036°33'0 0.1
2017-Aug-10 05:56N 45°10' E 036°33'  
Track history (hours):
 
Tides and Currents Weather Stations Pressure Air Temp Water Temp Dewpoint Dewpoint Depression Visibility Wind Speed Wind Dir Waves Ship Positions

Panda

Last reported at 2017-Aug-20 05:52 UTC. Time now 2017-Aug-20 15:34 UTC.
Position N 39°60' E 025°57'.

Length 171 m; draft 9.8 m.

Type: Cargo ship. MMSI: 352528000.

Date/timePositionNaut miles runAvg speedWind from/ knotsBaromVisibWave heightAir tempDewpointWater temp
2017-Aug-20 05:52N 39°60' E 025°57'511.9
2017-Aug-20 05:29N 40°01' E 026°03'611.7
2017-Aug-20 04:58N 40°02' E 026°11'153 6.1
2017-Aug-19 03:52N 41°22' E 029°02'0 1.2
2017-Aug-19 03:30N 41°22' E 029°02'6 1.2
2017-Aug-18 22:10N 41°27' E 028°57'0 0.7
2017-Aug-18 21:29N 41°27' E 028°56'0 0.7
2017-Aug-18 20:57N 41°28' E 028°56'0 0.7
2017-Aug-18 20:29N 41°28' E 028°56'0 0.7
2017-Aug-18 20:00N 41°28' E 028°56'0 0.6
2017-Aug-18 19:30N 41°29' E 028°56'0 0.7
2017-Aug-18 18:49N 41°29' E 028°56'1 0.8
2017-Aug-18 17:34N 41°30' E 028°56'0 0.8
2017-Aug-18 17:24N 41°30' E 028°56'1 0.8
2017-Aug-18 16:47N 41°31' E 028°56'0 0.8
2017-Aug-18 16:29N 41°31' E 028°56'0 0.8
2017-Aug-18 15:59N 41°31' E 028°56'0 0.8
2017-Aug-18 15:24N 41°32' E 028°56'0 0.7
2017-Aug-18 15:01N 41°32' E 028°56'3 6.9
2017-Aug-18 14:30N 41°29' E 028°58'8 2.3
2017-Aug-18 11:10N 41°23' E 029°05'1 0.9
2017-Aug-18 10:28N 41°23' E 029°04'0 0.9
2017-Aug-18 09:59N 41°24' E 029°04'0 0.9
2017-Aug-18 09:30N 41°24' E 029°04'0 1.0
2017-Aug-18 09:01N 41°24' E 029°04'0 0.9
2017-Aug-18 08:29N 41°25' E 029°03'14 4.5
2017-Aug-18 05:25N 41°19' E 029°20'10 1.1
2017-Aug-17 20:26N 41°25' E 029°10'0 0.9
2017-Aug-17 20:00N 41°25' E 029°10'0 0.8
2017-Aug-17 19:29N 41°26' E 029°09'0 0.6
2017-Aug-17 18:54N 41°26' E 029°09'0 0.6
2017-Aug-17 18:30N 41°26' E 029°09'1 1.6
2017-Aug-17 18:00N 41°25' E 029°08'8 9.8
2017-Aug-17 17:13N 41°21' E 029°17'1 2.7
2017-Aug-17 16:59N 41°20' E 029°17'1 1.3
2017-Aug-17 16:29N 41°20' E 029°16'1 1.1
2017-Aug-17 16:00N 41°21' E 029°16'1 1.0
2017-Aug-17 15:30N 41°21' E 029°15'1 1.1
2017-Aug-17 14:58N 41°21' E 029°15'0 1.0
2017-Aug-17 14:30N 41°22' E 029°14'0 0.9
2017-Aug-17 14:00N 41°22' E 029°14'1 1.0
2017-Aug-17 13:29N 41°23' E 029°13'9 5.0
2017-Aug-17 11:45N 41°27' E 029°23'311.1
2017-Aug-17 11:29N 41°28' E 029°27'611.2
2017-Aug-17 10:57N 41°32' E 029°33'611.3
2017-Aug-17 10:26N 41°35' E 029°40'511.4
2017-Aug-17 10:00N 41°38' E 029°45'611.5
2017-Aug-17 09:30N 41°41' E 029°52'611.6
2017-Aug-17 09:00N 41°44' E 029°58'611.6
2017-Aug-17 08:30N 41°47' E 030°05'611.5
2017-Aug-17 07:59N 41°50' E 030°11'611.5
2017-Aug-17 07:30N 41°53' E 030°18'611.6
2017-Aug-17 07:00N 41°56' E 030°24'32911.3
2017-Aug-16 01:54N 45°09' E 036°32'1 2.2
2017-Aug-16 01:30N 45°10' E 036°33'0 0.2
2017-Aug-16 00:23N 45°10' E 036°33'0 0.0
2017-Aug-15 23:35N 45°10' E 036°33'0 0.2
2017-Aug-15 23:23N 45°10' E 036°33'0 0.1
2017-Aug-15 22:59N 45°10' E 036°33'0 0.0
2017-Aug-15 22:29N 45°10' E 036°33'0 0.0
2017-Aug-15 21:59N 45°10' E 036°33'0 0.1
2017-Aug-15 21:29N 45°10' E 036°33'0 0.1
2017-Aug-15 20:59N 45°10' E 036°33'0 0.1
2017-Aug-15 19:32N 45°10' E 036°33'0 0.0
2017-Aug-15 19:29N 45°10' E 036°33'0 0.0
2017-Aug-15 18:56N 45°10' E 036°33'0 0.0
2017-Aug-15 18:26N 45°10' E 036°33'0 0.0
2017-Aug-15 17:59N 45°10' E 036°33'0 0.1
2017-Aug-15 16:44N 45°10' E 036°33'0 0.0
2017-Aug-15 16:29N 45°10' E 036°33'0 0.1
2017-Aug-15 15:56N 45°10' E 036°33'0 0.2
2017-Aug-15 15:29N 45°10' E 036°33'0 0.1
2017-Aug-15 14:53N 45°10' E 036°33'0 0.0
2017-Aug-15 14:23N 45°10' E 036°33'0 0.1
2017-Aug-15 13:59N 45°10' E 036°33'0 0.0
2017-Aug-15 13:29N 45°10' E 036°33'0 0.0
2017-Aug-15 12:59N 45°10' E 036°33'0 0.1
2017-Aug-15 12:29N 45°10' E 036°33'0 0.1
2017-Aug-15 11:41N 45°10' E 036°33'0 0.1
2017-Aug-15 11:29N 45°10' E 036°33'0 0.0
2017-Aug-15 10:59N 45°10' E 036°33'0 0.1
2017-Aug-15 10:23N 45°10' E 036°33'0 0.0
2017-Aug-15 09:59N 45°10' E 036°33'0 0.0
2017-Aug-14 13:05N 45°10' E 036°33'0 0.1
2017-Aug-14 12:59N 45°10' E 036°33'0 0.0
2017-Aug-14 12:14N 45°10' E 036°33'0 0.0
2017-Aug-14 11:59N 45°10' E 036°33'0 0.0
2017-Aug-14 11:29N 45°10' E 036°33'0 0.0
2017-Aug-14 10:44N 45°10' E 036°33'0 0.0
2017-Aug-14 10:29N 45°10' E 036°33'0 0.0
2017-Aug-14 09:56N 45°10' E 036°33'0 0.1
2017-Aug-14 08:11N 45°10' E 036°33'0 0.1
2017-Aug-14 07:59N 45°10' E 036°33'0 0.0
2017-Aug-14 07:29N 45°10' E 036°33'0 0.0
2017-Aug-14 06:56N 45°10' E 036°33'0 0.0
2017-Aug-14 06:26N 45°10' E 036°33'0 0.0
2017-Aug-14 05:41N 45°10' E 036°33'0 0.0
2017-Aug-14 05:29N 45°10' E 036°33'0 0.0
2017-Aug-14 04:44N 45°10' E 036°33'0 0.0
2017-Aug-14 04:26N 45°10' E 036°33'0 0.0
2017-Aug-14 03:14N 45°10' E 036°33'0 0.1
2017-Aug-14 02:50N 45°10' E 036°33'0 0.0
2017-Aug-14 02:29N 45°10' E 036°33'0 0.0
2017-Aug-14 01:26N 45°10' E 036°33'0 0.0
2017-Aug-14 00:53N 45°10' E 036°33'0 0.1
2017-Aug-14 00:29N 45°10' E 036°33'0 0.0
2017-Aug-13 23:56N 45°10' E 036°33'0 0.0
2017-Aug-13 23:26N 45°10' E 036°33'0 0.1
2017-Aug-13 22:56N 45°10' E 036°33'0 0.0
2017-Aug-13 22:29N 45°10' E 036°33'0 0.0
2017-Aug-13 21:59N 45°10' E 036°33'0 0.0
2017-Aug-13 21:23N 45°10' E 036°33'0 0.1
2017-Aug-13 20:56N 45°10' E 036°33'0 0.0
2017-Aug-13 20:23N 45°10' E 036°33'0 0.0
2017-Aug-13 19:47N 45°10' E 036°33'0 0.0
2017-Aug-13 19:29N 45°10' E 036°33'0 0.0
2017-Aug-13 18:59N 45°10' E 036°33'0 0.0
2017-Aug-13 18:29N 45°10' E 036°33'0 0.1
2017-Aug-13 17:59N 45°10' E 036°33'0 0.1
2017-Aug-13 15:29N 45°10' E 036°33'0 0.1
2017-Aug-13 14:59N 45°10' E 036°33'0 0.1
2017-Aug-13 14:26N 45°10' E 036°33'0 0.0
2017-Aug-13 13:44N 45°10' E 036°33'0 0.1
2017-Aug-13 13:17N 45°10' E 036°33'0 0.0
2017-Aug-13 12:56N 45°10' E 036°33'0 0.1
2017-Aug-13 12:29N 45°10' E 036°33'0 0.0
2017-Aug-13 11:59N 45°10' E 036°33'0 0.1
2017-Aug-13 11:29N 45°10' E 036°33'0 0.1
2017-Aug-13 10:59N 45°10' E 036°33'0 0.0
2017-Aug-13 10:26N 45°10' E 036°33'0 0.0
2017-Aug-13 09:59N 45°10' E 036°33'0 0.0
2017-Aug-13 09:26N 45°10' E 036°33'0 0.0
2017-Aug-13 08:59N 45°10' E 036°33'0 0.1
2017-Aug-13 08:26N 45°10' E 036°33'0 0.1
2017-Aug-13 07:59N 45°10' E 036°33'0 0.0
2017-Aug-13 07:29N 45°10' E 036°33'0 0.0
2017-Aug-13 06:59N 45°10' E 036°33'0 0.0
2017-Aug-13 06:29N 45°10' E 036°33'0 0.0
2017-Aug-13 05:59N 45°10' E 036°33'0 0.0
2017-Aug-13 05:23N 45°10' E 036°33'0 0.0
2017-Aug-13 04:50N 45°10' E 036°33'0 0.0
2017-Aug-13 03:50N 45°10' E 036°33'0 0.0
2017-Aug-13 03:29N 45°10' E 036°33'0 0.0
2017-Aug-13 02:53N 45°10' E 036°33'0 0.0
2017-Aug-13 01:23N 45°10' E 036°33'0 0.0
2017-Aug-13 00:59N 45°10' E 036°33'0 0.0
2017-Aug-12 23:32N 45°10' E 036°33'0 0.1
2017-Aug-12 23:29N 45°10' E 036°33'0 0.0
2017-Aug-12 22:59N 45°10' E 036°33'0 0.0
2017-Aug-12 22:29N 45°10' E 036°33'0 0.0
2017-Aug-12 21:53N 45°10' E 036°33'0 0.0
2017-Aug-12 21:17N 45°10' E 036°33'0 0.1
2017-Aug-12 20:50N 45°10' E 036°33'0 0.0
2017-Aug-12 17:44N 45°10' E 036°33'0 0.0
2017-Aug-12 17:23N 45°10' E 036°33'0 0.0
2017-Aug-12 16:41N 45°10' E 036°33'0 0.1
2017-Aug-12 16:29N 45°10' E 036°33'0 0.0
2017-Aug-12 15:56N 45°10' E 036°33'0 0.0
2017-Aug-12 15:29N 45°10' E 036°33'0 0.0
2017-Aug-12 14:59N 45°10' E 036°33'0 0.0
2017-Aug-12 14:29N 45°10' E 036°33'0 0.0
2017-Aug-12 13:59N 45°10' E 036°33'0 0.0
2017-Aug-12 13:29N 45°10' E 036°33'0 0.0
2017-Aug-12 12:59N 45°10' E 036°33'0 0.0
2017-Aug-12 12:29N 45°10' E 036°33'0 0.0
2017-Aug-12 11:59N 45°10' E 036°33'0 0.0
2017-Aug-12 11:29N 45°10' E 036°33'0 0.0
2017-Aug-12 10:59N 45°10' E 036°33'0 0.0
2017-Aug-12 10:26N 45°10' E 036°33'0 0.0
2017-Aug-12 09:59N 45°10' E 036°33'0 0.0
2017-Aug-12 09:29N 45°10' E 036°33'0 0.0
2017-Aug-12 08:53N 45°10' E 036°33'0 0.0
2017-Aug-12 08:26N 45°10' E 036°33'0 0.0
2017-Aug-12 07:59N 45°10' E 036°33'0 0.0
2017-Aug-12 07:29N 45°10' E 036°33'0 0.0
2017-Aug-12 06:59N 45°10' E 036°33'0 0.1
2017-Aug-12 06:20N 45°10' E 036°33'0 0.0
2017-Aug-12 05:38N 45°10' E 036°33'0 0.0
2017-Aug-12 05:17N 45°10' E 036°33'0 0.0
2017-Aug-12 04:59N 45°10' E 036°33'0 0.0
2017-Aug-12 02:59N 45°10' E 036°33'0 0.0
2017-Aug-12 02:26N 45°10' E 036°33'0 0.0
2017-Aug-12 01:59N 45°10' E 036°33'0 0.0
2017-Aug-12 01:29N 45°10' E 036°33'0 0.0
2017-Aug-12 00:59N 45°10' E 036°33'0 0.0
2017-Aug-12 00:29N 45°10' E 036°33'0 0.0
2017-Aug-11 23:59N 45°10' E 036°33'0 0.0
2017-Aug-11 22:50N 45°10' E 036°33'0 0.0
2017-Aug-11 22:26N 45°10' E 036°33'0 0.0
2017-Aug-11 21:59N 45°10' E 036°33'0 0.0
2017-Aug-11 21:23N 45°10' E 036°33'0 0.1
2017-Aug-11 20:59N 45°10' E 036°33'0 0.0
2017-Aug-11 20:17N 45°10' E 036°33'0 0.0
2017-Aug-11 19:59N 45°10' E 036°33'0 0.0
2017-Aug-11 19:29N 45°10' E 036°33'0 0.0
2017-Aug-11 18:59N 45°10' E 036°33'0 0.0
2017-Aug-11 18:29N 45°10' E 036°33'0 0.0
2017-Aug-11 17:59N 45°10' E 036°33'0 0.0
2017-Aug-11 17:29N 45°10' E 036°33'0 0.0
2017-Aug-11 16:59N 45°10' E 036°33'0 0.0
2017-Aug-11 16:29N 45°10' E 036°33'0 0.0
2017-Aug-11 15:59N 45°10' E 036°33'0 0.0
2017-Aug-11 15:29N 45°10' E 036°33'0 0.0
2017-Aug-11 14:59N 45°10' E 036°33'0 0.0
2017-Aug-11 13:59N 45°10' E 036°33'0 0.0
2017-Aug-11 13:29N 45°10' E 036°33'0 0.0
2017-Aug-11 12:59N 45°10' E 036°33'0 0.0
2017-Aug-11 12:26N 45°10' E 036°33'0 0.0
2017-Aug-11 11:56N 45°10' E 036°33'0 0.0
2017-Aug-11 11:26N 45°10' E 036°33'0 0.0
2017-Aug-11 10:59N 45°10' E 036°33'0 0.0
2017-Aug-11 10:29N 45°10' E 036°33'0 0.1
2017-Aug-11 09:56N 45°10' E 036°33'0 0.0
2017-Aug-11 09:26N 45°10' E 036°33'0 0.0
2017-Aug-11 08:59N 45°10' E 036°33'0 0.0
2017-Aug-11 08:26N 45°10' E 036°33'0 0.0
2017-Aug-11 07:56N 45°10' E 036°33'0 0.0
2017-Aug-11 07:29N 45°10' E 036°33'0 0.0
2017-Aug-11 06:59N 45°10' E 036°33'0 0.0
2017-Aug-11 06:26N 45°10' E 036°33'0 0.0
2017-Aug-11 05:59N 45°10' E 036°33'0 0.0
2017-Aug-11 05:26N 45°10' E 036°33'0 0.0
2017-Aug-11 04:50N 45°10' E 036°33'0 0.0
2017-Aug-11 04:23N 45°10' E 036°33'0 0.0
2017-Aug-11 03:59N 45°10' E 036°33'0 0.0
2017-Aug-11 03:26N 45°10' E 036°33'0 0.0
2017-Aug-11 02:59N 45°10' E 036°33'0 0.0
2017-Aug-11 02:26N 45°10' E 036°33'0 0.0
2017-Aug-11 01:59N 45°10' E 036°33'0 0.0
2017-Aug-11 01:20N 45°10' E 036°33'0 0.0
2017-Aug-11 00:59N 45°10' E 036°33'0 0.0
2017-Aug-11 00:23N 45°10' E 036°33'0 0.0
2017-Aug-10 23:59N 45°10' E 036°33'0 0.0
2017-Aug-10 23:26N 45°10' E 036°33'0 0.0
2017-Aug-10 22:59N 45°10' E 036°33'0 0.0
2017-Aug-10 22:14N 45°10' E 036°33'0 0.0
2017-Aug-10 21:56N 45°10' E 036°33'0 0.0
2017-Aug-10 21:26N 45°10' E 036°33'0 0.0
2017-Aug-10 20:59N 45°10' E 036°33'0 0.0
2017-Aug-10 20:29N 45°10' E 036°33'0 0.0
2017-Aug-10 19:53N 45°10' E 036°33'0 0.0
2017-Aug-10 19:29N 45°10' E 036°33'0 0.0
2017-Aug-10 18:59N 45°10' E 036°33'0 0.0
2017-Aug-10 18:26N 45°10' E 036°33'0 0.0
2017-Aug-10 17:56N 45°10' E 036°33'0 0.0
2017-Aug-10 17:26N 45°10' E 036°33'0 0.0
2017-Aug-10 16:59N 45°10' E 036°33'0 0.0
2017-Aug-10 16:26N 45°10' E 036°33'0 0.0
2017-Aug-10 15:59N 45°10' E 036°33'0 0.0
2017-Aug-10 15:29N 45°10' E 036°33'0 0.0
2017-Aug-10 14:56N 45°10' E 036°33'0 0.0
2017-Aug-10 14:29N 45°10' E 036°33'0 0.0
2017-Aug-10 13:56N 45°10' E 036°33'0 0.0
2017-Aug-10 13:29N 45°10' E 036°33'0 0.0
2017-Aug-10 12:59N 45°10' E 036°33'0 0.0
2017-Aug-10 12:26N 45°10' E 036°33'0 0.0
2017-Aug-10 11:59N 45°10' E 036°33'0 0.0
2017-Aug-10 11:26N 45°10' E 036°33'0 0.0
2017-Aug-10 10:59N 45°10' E 036°33'0 0.0
2017-Aug-10 10:26N 45°10' E 036°33'0 0.0
2017-Aug-10 09:53N 45°10' E 036°33'0 0.1
2017-Aug-10 09:29N 45°10' E 036°33'0 0.0
2017-Aug-10 08:53N 45°10' E 036°33'0 0.0
2017-Aug-10 08:26N 45°10' E 036°33'0 0.1
2017-Aug-10 07:53N 45°10' E 036°33'0 0.0
2017-Aug-10 07:23N 45°10' E 036°33'0 0.0
2017-Aug-10 06:59N 45°10' E 036°33'0 0.0
2017-Aug-10 06:26N 45°10' E 036°33'0 0.1
2017-Aug-10 05:56N 45°10' E 036°33'  

Dump ship's entire track history